createdAt,value
2018-09-13T00:00:23.755Z,44.52
2018-09-13T00:02:55.613Z,44.21
2018-09-13T00:05:25.141Z,44.54
2018-09-13T00:07:54.471Z,44.47
2018-09-13T00:10:24.859Z,43.88
2018-09-13T00:12:54.284Z,43.79
2018-09-13T00:15:24.822Z,43.79
2018-09-13T00:17:54.193Z,44.23
2018-09-13T00:20:24.447Z,44.28
2018-09-13T00:22:54.719Z,44.26
2018-09-13T00:25:25.375Z,44.07
2018-09-13T00:27:57.212Z,43.38
2018-09-13T00:30:27.126Z,43.78
2018-09-13T00:32:57.379Z,43.35
2018-09-13T00:35:29.319Z,43.99
2018-09-13T00:38:00.797Z,43.60
2018-09-13T00:40:31.052Z,44.21
2018-09-13T00:43:01.253Z,43.95
2018-09-13T00:45:31.698Z,44.25
2018-09-13T00:48:01.969Z,44.33
2018-09-13T00:50:31.373Z,44.53
2018-09-13T00:53:02.513Z,43.76
2018-09-13T00:55:32.840Z,44.42
2018-09-13T00:58:03.120Z,43.91
2018-09-13T01:00:33.337Z,43.95
2018-09-13T01:03:03.619Z,44.36
2018-09-13T01:05:33.150Z,44.08
2018-09-13T01:08:06.522Z,43.67
2018-09-13T01:10:35.908Z,44.00
2018-09-13T01:13:05.259Z,43.30
2018-09-13T01:19:03.258Z,43.50
2018-09-13T01:21:33.180Z,43.83
2018-09-13T01:24:02.343Z,42.95
2018-09-13T01:26:40.091Z,43.63
2018-09-13T01:29:10.020Z,43.56
2018-09-13T01:31:44.552Z,43.82
2018-09-13T01:34:14.694Z,43.70
2018-09-13T01:36:44.073Z,43.63
2018-09-13T01:39:15.507Z,43.06
2018-09-13T01:41:48.089Z,43.11
2018-09-13T01:44:17.839Z,43.59
2018-09-13T01:46:48.050Z,43.65
2018-09-13T01:49:19.620Z,43.97
2018-09-13T01:51:48.859Z,43.98
2018-09-13T01:54:18.106Z,43.33
2018-09-13T01:56:49.035Z,43.88
2018-09-13T01:59:18.425Z,43.48
2018-09-13T02:01:47.629Z,43.49
2018-09-13T02:04:17.236Z,44.08
2018-09-13T02:06:47.818Z,44.04
2018-09-13T02:09:17.955Z,44.30
2018-09-13T02:11:48.354Z,43.78
2018-09-13T02:14:17.716Z,44.23
2018-09-13T02:16:46.942Z,44.33
2018-09-13T02:19:16.541Z,44.72
2018-09-13T02:21:45.770Z,44.47
2018-09-13T02:24:15.907Z,43.95
2018-09-13T02:26:46.529Z,43.95
2018-09-13T02:29:16.689Z,44.37
2018-09-13T02:31:46.822Z,43.89
2018-09-13T02:34:16.977Z,45.11
2018-09-13T02:36:46.242Z,44.25
2018-09-13T02:39:16.354Z,45.12
2018-09-13T02:41:47.967Z,44.83
2018-09-13T02:44:17.361Z,44.49
2018-09-13T02:46:47.557Z,45.38
2018-09-13T02:49:16.770Z,45.58
2018-09-13T02:51:46.203Z,45.14
2018-09-13T02:54:15.466Z,45.41
2018-09-13T02:56:45.584Z,44.95
2018-09-13T02:59:15.783Z,45.21
2018-09-13T03:01:46.069Z,45.12
2018-09-13T03:04:16.207Z,45.10
2018-09-13T03:06:46.348Z,45.51
2018-09-13T03:09:16.593Z,45.74
2018-09-13T03:11:45.916Z,45.51
2018-09-13T03:14:15.111Z,45.18
2018-09-13T03:16:45.523Z,45.26
2018-09-13T03:19:14.756Z,45.07
2018-09-13T03:21:44.975Z,45.11
2018-09-13T03:24:15.065Z,45.21
2018-09-13T03:26:45.448Z,44.93
2018-09-13T03:29:15.680Z,44.62
2018-09-13T03:31:45.242Z,45.04
2018-09-13T03:34:15.478Z,44.69
2018-09-13T03:36:45.998Z,44.82
2018-09-13T03:39:17.281Z,44.97
2018-09-13T03:41:47.389Z,45.16
2018-09-13T03:44:16.595Z,44.60
2018-09-13T03:46:47.013Z,44.70
2018-09-13T03:49:17.720Z,44.61
2018-09-13T03:51:48.919Z,44.12
2018-09-13T03:54:19.344Z,44.27
2018-09-13T03:59:41.720Z,44.93
2018-09-13T04:02:11.839Z,44.63
2018-09-13T04:04:41.945Z,44.04
2018-09-13T04:07:13.888Z,44.22
2018-09-13T04:09:43.993Z,44.96
2018-09-13T04:12:15.074Z,44.45
2018-09-13T04:14:45.693Z,43.43
2018-09-13T04:17:15.819Z,43.99
2018-09-13T04:19:46.917Z,44.40
2018-09-13T04:22:18.366Z,44.46
2018-09-13T04:24:49.535Z,44.06
2018-09-13T04:27:19.822Z,44.38
2018-09-13T04:29:51.283Z,43.89
2018-09-13T04:32:22.416Z,44.08
2018-09-13T04:34:52.609Z,44.16
2018-09-13T04:37:23.309Z,44.24
2018-09-13T04:39:53.393Z,43.97
2018-09-13T04:42:23.486Z,44.28
2018-09-13T04:44:53.594Z,43.93
2018-09-13T04:47:24.880Z,43.90
2018-09-13T04:49:55.010Z,43.51
2018-09-13T04:52:25.948Z,44.49
2018-09-13T04:54:57.220Z,43.93
2018-09-13T04:57:27.798Z,43.44
2018-09-13T04:59:59.258Z,43.83
2018-09-13T05:02:30.309Z,43.05
2018-09-13T05:05:00.922Z,42.83
2018-09-13T05:07:31.678Z,42.94
2018-09-13T05:10:02.359Z,43.00
2018-09-13T05:12:32.027Z,43.26
2018-09-13T05:15:03.478Z,43.46
2018-09-13T05:17:33.676Z,43.75
2018-09-13T05:20:03.778Z,43.66
2018-09-13T05:22:35.620Z,43.81
2018-09-13T05:25:05.986Z,43.31
2018-09-13T05:27:37.093Z,43.39
2018-09-13T05:30:07.840Z,44.41
2018-09-13T05:32:38.999Z,43.79
2018-09-13T05:35:09.538Z,44.04
2018-09-13T05:37:41.640Z,44.12
2018-09-13T05:40:12.846Z,43.71
2018-09-13T05:42:43.641Z,43.79
2018-09-13T05:45:17.383Z,44.16
2018-09-13T05:47:47.560Z,44.22
2018-09-13T05:50:17.684Z,44.40
2018-09-13T05:52:47.778Z,44.10
2018-09-13T05:55:21.327Z,43.58
2018-09-13T05:57:53.237Z,43.50
2018-09-13T06:00:24.781Z,44.23
2018-09-13T06:02:55.918Z,43.64
2018-09-13T06:05:26.038Z,43.51
2018-09-13T06:07:56.201Z,42.97
2018-09-13T06:10:27.021Z,43.60
2018-09-13T06:12:59.127Z,43.31
2018-09-13T06:15:30.249Z,43.93
2018-09-13T06:18:01.785Z,43.84
2018-09-13T06:20:33.829Z,43.78
2018-09-13T06:23:04.856Z,43.68
2018-09-13T06:25:36.679Z,43.21
2018-09-13T06:28:07.992Z,43.08
2018-09-13T06:30:37.316Z,42.69
2018-09-13T06:33:07.553Z,42.52
2018-09-13T06:35:36.804Z,42.65
2018-09-13T06:38:06.945Z,42.67
2018-09-13T06:40:37.102Z,42.42
2018-09-13T06:43:08.273Z,41.39
2018-09-13T06:45:39.029Z,41.56
2018-09-13T06:48:10.166Z,41.42
2018-09-13T06:50:40.275Z,40.96
2018-09-13T06:53:10.763Z,40.91
2018-09-13T06:55:43.075Z,41.01
2018-09-13T06:58:14.215Z,40.44
2018-09-13T07:00:44.598Z,39.93
2018-09-13T07:03:16.741Z,38.93
2018-09-13T07:05:46.617Z,38.56
2018-09-13T07:08:16.067Z,38.71
2018-09-13T07:10:45.489Z,39.22
2018-09-13T07:13:15.374Z,39.34
2018-09-13T07:18:10.454Z,38.84
2018-09-13T07:23:15.531Z,38.46
2018-09-13T07:25:46.204Z,38.63
2018-09-13T07:28:15.641Z,38.14
2018-09-13T07:30:44.967Z,38.33
2018-09-13T07:33:17.227Z,38.17
2018-09-13T07:35:47.419Z,38.51
2018-09-13T07:38:17.983Z,38.05
2018-09-13T07:40:47.317Z,37.04
2018-09-13T07:43:17.489Z,36.48
2018-09-13T07:45:50.438Z,37.39
2018-09-13T07:48:22.331Z,36.79
2018-09-13T07:50:53.239Z,35.91
2018-09-13T07:53:24.289Z,35.68
2018-09-13T07:55:54.431Z,35.82
2018-09-13T07:58:24.887Z,35.04
2018-09-13T08:00:56.094Z,35.16
2018-09-13T08:03:29.576Z,35.05
2018-09-13T08:05:59.197Z,34.75
2018-09-13T08:08:29.332Z,34.77
2018-09-13T08:11:01.946Z,34.77
2018-09-13T08:13:32.550Z,33.78
2018-09-13T08:16:03.779Z,33.92
2018-09-13T08:18:35.773Z,33.85
2018-09-13T08:21:06.270Z,33.92
2018-09-13T08:23:35.996Z,33.97
2018-09-13T08:26:06.627Z,34.45
2018-09-13T08:28:37.735Z,33.91
2018-09-13T08:31:07.421Z,34.25
2018-09-13T08:33:36.857Z,33.62
2018-09-13T08:36:08.145Z,33.41
2018-09-13T08:38:38.382Z,34.00
2018-09-13T08:41:10.108Z,34.22
2018-09-13T08:43:42.473Z,33.98
2018-09-13T08:46:13.051Z,35.16
2018-09-13T08:48:43.207Z,34.24
2018-09-13T08:51:16.128Z,34.27
2018-09-13T08:53:48.019Z,35.50
2018-09-13T08:56:17.385Z,34.30
2018-09-13T08:58:48.096Z,34.84
2018-09-13T09:01:18.164Z,35.02
2018-09-13T09:03:47.471Z,35.24
2018-09-13T09:06:17.622Z,35.60
2018-09-13T09:08:47.643Z,35.80
2018-09-13T09:11:16.993Z,35.26
2018-09-13T09:13:47.694Z,35.87
2018-09-13T09:16:17.497Z,35.44
2018-09-13T09:19:00.123Z,34.37
2018-09-13T09:21:30.452Z,34.08
2018-09-13T09:24:05.392Z,35.15
2018-09-13T09:26:36.133Z,35.06
2018-09-13T09:29:08.495Z,35.15
2018-09-13T09:31:40.735Z,35.13
2018-09-13T09:34:10.681Z,35.78
2018-09-13T09:36:42.107Z,36.07
2018-09-13T09:39:16.370Z,36.16
2018-09-13T09:41:49.005Z,35.81
2018-09-13T09:44:25.415Z,35.79
2018-09-13T09:46:57.158Z,36.75
2018-09-13T09:49:28.870Z,36.54
2018-09-13T09:52:00.696Z,35.93
2018-09-13T09:54:31.842Z,35.12
2018-09-13T09:57:02.263Z,35.76
2018-09-13T09:59:33.172Z,34.63
2018-09-13T10:02:09.209Z,35.41
2018-09-13T10:07:30.633Z,35.34
2018-09-13T10:10:01.245Z,35.26
2018-09-13T10:12:34.195Z,34.94
2018-09-13T10:15:09.551Z,35.09
2018-09-13T10:17:46.803Z,35.37
2018-09-13T10:20:22.342Z,35.93
2018-09-13T10:22:58.614Z,36.61
2018-09-13T10:27:36.183Z,36.57
2018-09-13T10:30:12.480Z,36.09
2018-09-13T10:32:48.322Z,36.38
2018-09-13T10:35:26.377Z,36.30
2018-09-13T10:38:02.673Z,36.73
2018-09-13T10:40:37.721Z,36.85
2018-09-13T10:43:13.367Z,37.22
2018-09-13T10:45:49.199Z,38.71
2018-09-13T10:48:23.798Z,38.47
2018-09-13T10:50:59.479Z,38.29
2018-09-13T10:53:38.617Z,37.81
2018-09-13T10:56:10.794Z,38.50
2018-09-13T10:58:44.133Z,38.05
2018-09-13T11:01:17.159Z,37.02
2018-09-13T11:03:47.271Z,37.51
2018-09-13T11:06:17.103Z,37.16
2018-09-13T11:08:46.974Z,36.71
2018-09-13T11:11:17.373Z,35.94
2018-09-13T11:13:57.704Z,35.33
2018-09-13T11:16:28.066Z,36.06
2018-09-13T11:19:01.033Z,36.08
2018-09-13T11:21:31.972Z,36.01
2018-09-13T11:24:04.632Z,35.65
2018-09-13T11:26:36.725Z,34.72
2018-09-13T11:29:08.161Z,34.90
2018-09-13T11:31:40.289Z,35.64
2018-09-13T11:34:12.865Z,35.12
2018-09-13T11:36:43.856Z,36.08
2018-09-13T11:39:17.611Z,34.68
2018-09-13T11:41:52.574Z,35.48
2018-09-13T11:44:22.883Z,35.32
2018-09-13T11:46:55.067Z,35.13
2018-09-13T11:49:25.514Z,34.49
2018-09-13T11:51:58.100Z,34.21
2018-09-13T11:54:29.160Z,34.83
2018-09-13T11:56:59.331Z,34.63
2018-09-13T11:59:31.466Z,34.61
2018-09-13T12:02:01.796Z,34.77
2018-09-13T12:04:33.356Z,35.54
2018-09-13T12:07:05.266Z,34.84
2018-09-13T12:09:35.904Z,34.86
2018-09-13T12:12:06.809Z,35.21
2018-09-13T12:14:40.370Z,35.40
2018-09-13T12:17:13.107Z,35.09
2018-09-13T12:19:45.944Z,35.91
2018-09-13T12:22:16.229Z,34.58
2018-09-13T12:24:46.766Z,35.78
2018-09-13T12:27:18.241Z,35.74
2018-09-13T12:29:49.152Z,36.18
2018-09-13T12:32:22.495Z,35.84
2018-09-13T12:34:56.146Z,36.23
2018-09-13T12:37:27.017Z,35.53
2018-09-13T12:39:58.804Z,35.83
2018-09-13T12:42:29.737Z,34.89
2018-09-13T12:45:02.279Z,34.74
2018-09-13T12:47:33.938Z,35.01
2018-09-13T12:50:05.811Z,34.75
2018-09-13T12:52:36.859Z,35.03
2018-09-13T12:55:12.349Z,34.79
2018-09-13T12:57:43.398Z,35.05
2018-09-13T13:00:27.267Z,35.28
2018-09-13T13:02:59.480Z,34.91
2018-09-13T13:05:31.398Z,34.79
2018-09-13T13:08:03.685Z,35.49
2018-09-13T13:10:34.667Z,36.12
2018-09-13T13:13:09.164Z,36.50
2018-09-13T13:15:42.337Z,35.30
2018-09-13T13:18:14.507Z,35.67
2018-09-13T13:20:45.446Z,35.82
2018-09-13T13:23:16.855Z,36.25
2018-09-13T13:25:53.252Z,35.97
2018-09-13T13:28:26.757Z,35.98
2018-09-13T13:30:58.433Z,35.66
2018-09-13T13:33:29.973Z,34.44
2018-09-13T13:36:01.947Z,34.60
2018-09-13T13:38:42.521Z,35.01
2018-09-13T13:41:14.296Z,35.21
2018-09-13T13:43:53.090Z,35.05
2018-09-13T13:46:31.259Z,35.45
2018-09-13T13:49:04.178Z,34.48
2018-09-13T13:51:39.384Z,34.01
2018-09-13T13:54:10.787Z,34.28
2018-09-13T13:56:45.964Z,34.51
2018-09-13T13:59:17.582Z,34.99
2018-09-13T14:01:48.286Z,35.00
2018-09-13T14:04:19.410Z,35.00
2018-09-13T14:06:51.197Z,35.23
2018-09-13T14:09:22.603Z,34.72
2018-09-13T14:11:54.691Z,34.14
2018-09-13T14:14:25.884Z,34.05
2018-09-13T14:16:57.422Z,34.19
2018-09-13T14:19:29.360Z,34.36
2018-09-13T14:22:02.524Z,33.82
2018-09-13T14:24:37.398Z,34.66
2018-09-13T14:27:10.321Z,33.88
2018-09-13T14:29:42.243Z,33.60
2018-09-13T14:32:13.602Z,32.91
2018-09-13T14:34:45.458Z,32.77
2018-09-13T14:37:17.214Z,33.28
2018-09-13T14:39:49.516Z,31.89
2018-09-13T14:42:20.711Z,32.68
2018-09-13T14:44:53.180Z,32.40
2018-09-13T14:47:25.942Z,32.38
2018-09-13T14:49:56.897Z,32.40
2018-09-13T14:52:27.461Z,31.88
2018-09-13T14:54:59.184Z,32.11
2018-09-13T14:57:30.390Z,31.98
2018-09-13T15:00:02.177Z,31.61
2018-09-13T15:02:33.861Z,31.35
2018-09-13T15:05:04.415Z,31.33
2018-09-13T15:07:35.739Z,31.60
2018-09-13T15:10:06.958Z,32.07
2018-09-13T15:12:37.888Z,32.54
2018-09-13T15:15:08.649Z,32.26
2018-09-13T15:17:41.123Z,32.04
2018-09-13T15:20:13.015Z,32.41
2018-09-13T15:22:44.774Z,32.38
2018-09-13T15:25:15.892Z,32.78
2018-09-13T15:27:49.391Z,33.37
2018-09-13T15:30:22.543Z,33.60
2018-09-13T15:32:53.632Z,33.11
2018-09-13T15:35:25.820Z,33.18
2018-09-13T15:37:56.730Z,32.82
2018-09-13T15:40:28.000Z,32.54
2018-09-13T15:42:58.907Z,32.43
2018-09-13T15:45:31.318Z,33.50
2018-09-13T15:48:04.390Z,33.52
2018-09-13T15:50:36.811Z,33.21
2018-09-13T15:53:07.866Z,33.57
2018-09-13T15:55:38.952Z,34.14
2018-09-13T15:58:10.593Z,34.28
2018-09-13T16:00:42.801Z,34.30
2018-09-13T16:03:14.712Z,34.34
2018-09-13T16:05:49.078Z,33.65
2018-09-13T16:08:20.873Z,34.27
2018-09-13T16:10:52.502Z,33.86
2018-09-13T16:13:24.429Z,35.03
2018-09-13T16:15:55.349Z,34.74
2018-09-13T16:18:25.568Z,34.71
2018-09-13T16:20:57.356Z,34.84
2018-09-13T16:23:29.011Z,35.03
2018-09-13T16:25:59.990Z,35.11
2018-09-13T16:28:31.127Z,34.76
2018-09-13T16:31:02.091Z,35.21
2018-09-13T16:33:36.868Z,35.43
2018-09-13T16:36:09.296Z,35.20
2018-09-13T16:38:49.011Z,34.96
2018-09-13T16:41:24.897Z,34.31
2018-09-13T16:44:02.728Z,34.39
2018-09-13T16:46:38.456Z,34.93
2018-09-13T16:49:08.436Z,34.38
2018-09-13T16:51:40.702Z,34.85
2018-09-13T16:54:11.850Z,35.32
2018-09-13T16:56:42.786Z,34.92
2018-09-13T16:59:12.078Z,35.71
2018-09-13T17:01:47.006Z,36.07
2018-09-13T17:04:17.507Z,35.73
2018-09-13T17:06:48.223Z,35.17
2018-09-13T17:09:19.168Z,35.49
2018-09-13T17:11:49.747Z,35.45
2018-09-13T17:14:19.287Z,35.11
2018-09-13T17:16:49.445Z,35.67
2018-09-13T17:19:21.045Z,35.39
2018-09-13T17:21:52.436Z,35.09
2018-09-13T17:24:22.511Z,36.12
2018-09-13T17:26:53.614Z,36.20
2018-09-13T17:29:23.919Z,35.68
2018-09-13T17:31:53.897Z,35.89
2018-09-13T17:34:26.297Z,35.82
2018-09-13T17:36:57.006Z,36.18
2018-09-13T17:39:28.242Z,36.09
2018-09-13T17:41:58.494Z,35.32
2018-09-13T17:44:29.266Z,35.99
2018-09-13T17:46:59.937Z,36.41
2018-09-13T17:49:30.357Z,35.60
2018-09-13T17:52:01.949Z,35.64
2018-09-13T17:54:33.220Z,35.57
2018-09-13T17:57:04.140Z,35.74
2018-09-13T17:59:35.834Z,36.44
2018-09-13T18:02:06.893Z,36.32
2018-09-13T18:04:37.167Z,36.67
2018-09-13T18:07:10.467Z,36.96
2018-09-13T18:09:41.301Z,37.06
2018-09-13T18:12:12.404Z,37.09
2018-09-13T18:14:44.058Z,37.21
2018-09-13T18:17:14.115Z,37.14
2018-09-13T18:19:45.966Z,36.85
2018-09-13T18:22:16.148Z,37.24
2018-09-13T18:24:47.185Z,36.75
2018-09-13T18:27:20.351Z,37.11
2018-09-13T18:29:52.680Z,37.03
2018-09-13T18:32:24.174Z,37.17
2018-09-13T18:34:56.496Z,37.10
2018-09-13T18:37:26.637Z,37.69
2018-09-13T18:40:02.251Z,37.24
2018-09-13T18:42:32.274Z,36.91
2018-09-13T18:45:03.105Z,37.04
2018-09-13T18:47:35.544Z,36.83
2018-09-13T18:50:08.242Z,37.03
2018-09-13T18:52:39.300Z,37.14
2018-09-13T18:55:12.560Z,36.91
2018-09-13T18:57:43.671Z,37.21
2018-09-13T19:00:16.426Z,37.88
2018-09-13T19:02:48.153Z,37.32
2018-09-13T19:05:20.437Z,37.70
2018-09-13T19:07:55.737Z,37.73
2018-09-13T19:10:26.755Z,37.49
2018-09-13T19:13:00.312Z,37.20
2018-09-13T19:15:32.800Z,37.94
2018-09-13T19:18:07.350Z,37.41
2018-09-13T19:20:42.719Z,38.04
2018-09-13T19:23:15.422Z,38.40
2018-09-13T19:25:52.887Z,39.75
2018-09-13T19:28:28.296Z,40.23
2018-09-13T19:31:01.178Z,40.10
2018-09-13T19:33:33.755Z,40.13
2018-09-13T19:36:07.039Z,39.85
2018-09-13T19:38:40.018Z,40.54
2018-09-13T19:41:11.164Z,40.49
2018-09-13T19:43:50.817Z,40.43
2018-09-13T19:46:23.592Z,40.70
2018-09-13T19:48:54.508Z,40.81
2018-09-13T19:51:26.448Z,41.01
2018-09-13T19:54:01.346Z,41.45
2018-09-13T19:56:34.428Z,41.88
2018-09-13T19:59:06.519Z,41.52
2018-09-13T20:01:39.030Z,42.49
2018-09-13T20:04:12.722Z,42.38
2018-09-13T20:06:46.720Z,42.74
2018-09-13T20:09:19.202Z,42.63
2018-09-13T20:11:50.794Z,43.10
2018-09-13T20:14:26.603Z,42.83
2018-09-13T20:16:57.541Z,42.68
2018-09-13T20:19:30.733Z,43.25
2018-09-13T20:22:03.548Z,43.27
2018-09-13T20:24:34.736Z,43.16
2018-09-13T20:27:07.289Z,43.74
2018-09-13T20:29:38.776Z,44.09
2018-09-13T20:32:11.772Z,43.67
2018-09-13T20:34:44.164Z,44.02
2018-09-13T20:37:17.555Z,45.10
2018-09-13T20:39:49.223Z,44.87
2018-09-13T20:42:21.090Z,46.01
2018-09-13T20:44:52.225Z,46.69
2018-09-13T20:47:23.512Z,47.91
2018-09-13T20:49:55.950Z,48.46
2018-09-13T20:52:30.681Z,49.82
2018-09-13T20:55:03.691Z,50.40
2018-09-13T20:57:34.763Z,51.17
2018-09-13T21:00:06.651Z,51.71
2018-09-13T21:02:41.987Z,53.05
2018-09-13T21:05:16.302Z,53.86
2018-09-13T21:07:49.347Z,53.81
2018-09-13T21:10:21.928Z,53.90
2018-09-13T21:12:55.242Z,54.23
2018-09-13T21:15:28.571Z,53.80
2018-09-13T21:18:02.558Z,53.82
2018-09-13T21:20:34.407Z,54.33
2018-09-13T21:23:06.433Z,54.86
2018-09-13T21:25:37.513Z,54.96
2018-09-13T21:28:10.436Z,55.17
2018-09-13T21:30:41.571Z,55.13
2018-09-13T21:33:14.019Z,55.11
2018-09-13T21:35:45.901Z,55.13
2018-09-13T21:38:18.365Z,55.55
2018-09-13T21:41:00.343Z,55.21
2018-09-13T21:43:34.989Z,55.25
2018-09-13T21:46:09.589Z,55.91
2018-09-13T21:48:44.876Z,55.78
2018-09-13T21:51:18.060Z,56.39
2018-09-13T21:53:51.215Z,55.99
2018-09-13T21:56:27.348Z,56.59
2018-09-13T21:59:01.766Z,55.90
2018-09-13T22:01:36.403Z,55.87
2018-09-13T22:04:17.657Z,56.24
2018-09-13T22:06:51.743Z,55.10
2018-09-13T22:09:28.837Z,54.93
2018-09-13T22:12:02.126Z,54.87
2018-09-13T22:14:35.310Z,54.88
2018-09-13T22:17:10.277Z,54.39
2018-09-13T22:19:42.848Z,54.00
2018-09-13T22:22:15.283Z,53.13
2018-09-13T22:24:51.306Z,53.78
2018-09-13T22:27:23.225Z,52.79
2018-09-13T22:29:55.687Z,53.05
2018-09-13T22:32:28.634Z,52.63
2018-09-13T22:35:02.573Z,53.02
2018-09-13T22:37:38.617Z,51.43
2018-09-13T22:40:14.451Z,52.32
2018-09-13T22:42:47.821Z,52.77
2018-09-13T22:45:26.781Z,51.96
2018-09-13T22:48:00.399Z,51.49
2018-09-13T22:50:34.986Z,51.94
2018-09-13T22:53:09.323Z,51.40
2018-09-13T22:55:43.585Z,51.41
2018-09-13T22:58:19.171Z,51.87
2018-09-13T23:01:00.064Z,51.15
2018-09-13T23:03:33.293Z,51.97
2018-09-13T23:06:06.993Z,52.92
2018-09-13T23:08:39.058Z,52.45
2018-09-13T23:11:12.019Z,51.96
2018-09-13T23:13:50.815Z,50.29
2018-09-13T23:16:22.779Z,50.67
2018-09-13T23:18:57.921Z,50.58
2018-09-13T23:21:31.366Z,50.44
2018-09-13T23:24:05.526Z,50.36
2018-09-13T23:26:38.900Z,50.43
2018-09-13T23:29:11.468Z,50.40
2018-09-13T23:31:45.292Z,50.72
2018-09-13T23:34:17.365Z,50.35
2018-09-13T23:36:51.419Z,50.41
2018-09-13T23:39:22.649Z,51.10
2018-09-13T23:41:54.419Z,50.84
2018-09-13T23:44:27.931Z,51.37
2018-09-13T23:47:01.466Z,51.39
2018-09-13T23:49:33.555Z,51.27
2018-09-13T23:52:04.451Z,51.81
2018-09-13T23:54:36.768Z,51.67
2018-09-13T23:57:09.660Z,51.81
2018-09-13T23:59:41.363Z,51.51
